»·PEaware :: E7-SRJ L52-L88

E7-SRJ :: L52-L88

FLIGHT INFORMATION

Flight Status: Arrived
Operator: Unknown
More flights by this operator :: More flights under this callsign
Pilot: Deniz A. (11844)
Aircraft: CESSNA 172 SKYHAWK
(C172)
More flights by this aircraft type
Origin: L52 Oceano Co
United States
Destination: L88 New Cuyama
United States
More flights between these airports :: More routes between these airports
Route:
File this flight plan on PilotEdge
Remarks: Sample flight plan
Altitude:
(Current/Filed)
3,500ft
Speed:
(Current/Filed)
115kts
Departed: 29-Dec-17 08:30 AM
Arrived: 29-Dec-17 09:03 AM
Distance/Time
Traveled:
47nm/0:33
Distance/Time
To Go:
Arrived

Flight Plot

Page will automatically refresh every two minutes.


Map Options




Map Legend


Flown Route
Filed Route
Departure Airport
Arrival Airport
Navaid (VOR, NDB)
Fix

Horizontal Profiles

Position Reports

Time Latitude Longitude Heading Altitude Ground
Speed
29-Dec-17 08:17 35.103341 -120.624450 33 18ft 0kts
29-Dec-17 08:18 35.103341 -120.624450 33 18ft 0kts
29-Dec-17 08:19 35.103341 -120.624450 33 18ft 0kts
29-Dec-17 08:20 35.103341 -120.624450 33 18ft 0kts
29-Dec-17 08:21 35.103341 -120.624450 33 18ft 0kts
29-Dec-17 08:22 35.103341 -120.624450 33 18ft 0kts
29-Dec-17 08:23 35.103341 -120.624450 33 18ft 0kts
29-Dec-17 08:24 35.103341 -120.624450 33 18ft 0kts
29-Dec-17 08:25 35.103341 -120.624450 33 18ft 0kts
29-Dec-17 08:26 35.103341 -120.624450 33 18ft 0kts
29-Dec-17 08:27 35.103341 -120.624450 33 18ft 0kts
29-Dec-17 08:28 35.103341 -120.624450 33 18ft 0kts
29-Dec-17 08:29 35.103341 -120.624450 33 18ft 0kts
29-Dec-17 08:30 35.103341 -120.624450 33 18ft 0kts
29-Dec-17 08:31 35.103341 -120.624450 33 18ft 0kts
29-Dec-17 08:32 35.103341 -120.624450 33 18ft 0kts
29-Dec-17 08:33 35.103878 -120.625142 266 18ft 9kts
29-Dec-17 08:34 35.103548 -120.625275 222 18ft 0kts
29-Dec-17 08:35 35.103548 -120.625275 222 18ft 0kts
29-Dec-17 08:36 35.096656 -120.615859 153 224ft 83kts
29-Dec-17 08:37 35.090503 -120.593991 81 1155ft 84kts
29-Dec-17 08:38 35.091325 -120.564070 94 1991ft 84kts
29-Dec-17 08:39 35.087263 -120.534724 100 2756ft 90kts
29-Dec-17 08:40 35.081920 -120.503356 101 3384ft 97kts
29-Dec-17 08:41 35.076471 -120.471675 100 4003ft 97kts
29-Dec-17 08:42 35.071432 -120.438589 94 4554ft 102kts
29-Dec-17 08:43 35.065576 -120.405258 98 5140ft 99kts
29-Dec-17 08:44 35.060234 -120.373076 109 5727ft 96kts
29-Dec-17 08:45 35.055104 -120.344101 98 6334ft 93kts
29-Dec-17 08:46 35.049874 -120.313487 100 6901ft 94kts
29-Dec-17 08:47 35.044342 -120.281343 104 7394ft 95kts
29-Dec-17 08:48 35.039312 -120.248124 95 7689ft 112kts
29-Dec-17 08:49 35.031477 -120.209382 100 7668ft 121kts
29-Dec-17 08:50 35.026732 -120.171934 106 7730ft 112kts
29-Dec-17 08:51 35.018220 -120.134958 101 7677ft 114kts
29-Dec-17 08:52 35.018561 -120.097656 78 7677ft 112kts
29-Dec-17 08:53 35.001610 -120.066694 129 7684ft 113kts
29-Dec-17 08:54 34.997894 -120.029542 90 7688ft 112kts
29-Dec-17 08:55 34.996768 -119.991552 90 7692ft 112kts
29-Dec-17 08:56 34.985887 -119.956387 110 7691ft 113kts
29-Dec-17 08:57 34.981194 -119.921527 101 7692ft 112kts
29-Dec-17 08:58 34.973978 -119.884459 101 7692ft 112kts
29-Dec-17 08:59 34.968382 -119.847844 83 7827ft 102kts
29-Dec-17 09:00 34.971643 -119.810480 118 7239ft 134kts
29-Dec-17 09:01 34.957266 -119.770964 112 6840ft 123kts
29-Dec-17 09:02 34.941714 -119.733288 157 5720ft 143kts
29-Dec-17 09:03 34.920613 -119.759314 302 4540ft 143kts
29-Dec-17 09:04 34.958579 -119.773094 320 2539ft 138kts
29-Dec-17 09:05 34.966557 -119.761507 120 2326ft 96kts
29-Dec-17 09:06 34.956623 -119.738170 108 2217ft 70kts
29-Dec-17 09:07 34.951393 -119.716377 109 2260ft 66kts
29-Dec-17 09:08 34.943956 -119.695157 117 2217ft 66kts
29-Dec-17 09:09 34.940356 -119.686455 147 2173ft 0kts
29-Dec-17 09:10 34.942305 -119.690920 340 2156ft 15kts
29-Dec-17 09:11 34.942666 -119.690312 243 2157ft 7kts
29-Dec-17 09:12 34.942116 -119.690859 115 2161ft 54kts
29-Dec-17 09:13 34.942591 -119.690433 222 2157ft 0kts
29-Dec-17 09:14 34.942592 -119.690433 222 2157ft 0kts
29-Dec-17 09:15 34.942592 -119.690433 222 2157ft 0kts
29-Dec-17 09:16 34.942592 -119.690433 222 2157ft 0kts

Navigation Log

Ident Type
Flight plan parsing failed, navigation log unavailable